createdAt,value
2023-02-14T00:01:10.128Z,100429.31
2023-02-14T00:03:36.813Z,100418.84
2023-02-14T00:06:12.048Z,100418.13
2023-02-14T00:08:39.564Z,100435.56
2023-02-14T00:11:06.026Z,100432.03
2023-02-14T00:13:33.557Z,100427.00
2023-02-14T00:16:00.089Z,100422.84
2023-02-14T00:18:45.964Z,100436.88
2023-02-14T00:21:12.556Z,100424.47
2023-02-14T00:23:39.108Z,100438.47
2023-02-14T00:26:05.985Z,100432.97
2023-02-14T00:28:32.423Z,100440.28
2023-02-14T00:31:02.394Z,100429.44
2023-02-14T00:33:29.126Z,100430.91
2023-02-14T00:35:55.596Z,100426.78
2023-02-14T00:38:22.026Z,100433.00
2023-02-14T00:40:48.499Z,100430.75
2023-02-14T00:43:15.002Z,100435.28
2023-02-14T00:45:41.522Z,100430.97
2023-02-14T00:48:17.713Z,100425.78
2023-02-14T00:50:46.204Z,100430.97
2023-02-14T00:53:12.892Z,100432.75
2023-02-14T00:55:42.115Z,100433.81
2023-02-14T00:58:08.593Z,100438.53
2023-02-14T01:00:35.201Z,100433.88
2023-02-14T01:03:01.851Z,100445.19
2023-02-14T01:05:28.338Z,100435.34
2023-02-14T01:07:54.841Z,100441.19
2023-02-14T01:10:23.588Z,100440.69
2023-02-14T01:12:50.053Z,100444.06
2023-02-14T01:15:16.548Z,100438.56
2023-02-14T01:17:43.207Z,100436.72
2023-02-14T01:20:11.000Z,100435.09
2023-02-14T01:22:41.132Z,100442.63
2023-02-14T01:25:10.691Z,100438.28
2023-02-14T01:27:37.433Z,100424.56
2023-02-14T01:30:04.779Z,100437.19
2023-02-14T01:32:32.505Z,100430.47
2023-02-14T01:34:59.309Z,100426.41
2023-02-14T01:37:28.355Z,100429.22
2023-02-14T01:39:54.800Z,100422.09
2023-02-14T01:42:21.589Z,100421.66
2023-02-14T01:44:47.995Z,100423.66
2023-02-14T01:47:15.536Z,100423.53
2023-02-14T01:49:49.626Z,100421.66
2023-02-14T01:52:23.897Z,100422.28
2023-02-14T01:54:58.791Z,100422.09
2023-02-14T01:57:33.120Z,100434.84
2023-02-14T02:00:21.726Z,100422.84
2023-02-14T02:02:48.262Z,100428.31
2023-02-14T02:05:23.542Z,100421.50
2023-02-14T02:07:52.521Z,100424.09
2023-02-14T02:10:19.332Z,100424.94
2023-02-14T02:12:48.289Z,100430.53
2023-02-14T02:15:15.069Z,100432.91
2023-02-14T02:18:05.836Z,100429.66
2023-02-14T02:21:20.242Z,100419.63
2023-02-14T02:24:02.283Z,100415.84
2023-02-14T02:26:49.872Z,100411.56
2023-02-14T02:29:31.596Z,100413.53
2023-02-14T02:32:10.356Z,100408.97
2023-02-14T02:35:05.569Z,100410.75
2023-02-14T02:37:39.458Z,100408.97
2023-02-14T02:40:16.650Z,100415.00
2023-02-14T02:43:06.891Z,100415.53
2023-02-14T02:46:04.874Z,100413.59
2023-02-14T02:48:42.937Z,100411.34
2023-02-14T02:51:39.746Z,100414.28
2023-02-14T02:54:29.363Z,100416.47
2023-02-14T02:57:01.854Z,100411.84
2023-02-14T02:59:35.015Z,100413.88
2023-02-14T03:02:09.833Z,100416.47
2023-02-14T03:04:54.692Z,100414.09
2023-02-14T03:07:39.809Z,100422.72
2023-02-14T03:10:14.116Z,100415.72
2023-02-14T03:12:54.773Z,100423.47
2023-02-14T03:15:27.366Z,100413.69
2023-02-14T03:18:28.391Z,100413.41
2023-02-14T03:21:26.203Z,100405.72
2023-02-14T03:24:25.168Z,100418.56
2023-02-14T03:27:15.200Z,100413.63
2023-02-14T03:30:02.867Z,100412.81
2023-02-14T03:32:45.084Z,100408.53
2023-02-14T03:35:22.137Z,100410.56
2023-02-14T03:37:59.105Z,100397.31
2023-02-14T03:40:31.092Z,100397.00
2023-02-14T03:43:06.562Z,100389.03
2023-02-14T03:45:37.790Z,100387.25
2023-02-14T03:48:08.203Z,100386.53
2023-02-14T03:50:38.756Z,100384.75
2023-02-14T03:53:08.082Z,100392.50
2023-02-14T03:55:50.986Z,100384.00
2023-02-14T03:58:24.834Z,100388.63
2023-02-14T04:00:58.265Z,100387.81
2023-02-14T04:03:27.328Z,100392.16
2023-02-14T04:05:54.062Z,100387.88
2023-02-14T04:08:31.196Z,100387.66
2023-02-14T04:11:00.655Z,100390.16
2023-02-14T04:13:27.888Z,100391.19
2023-02-14T04:15:55.078Z,100387.88
2023-02-14T04:18:40.218Z,100386.69
2023-02-14T04:21:06.838Z,100383.88
2023-02-14T04:23:33.378Z,100374.91
2023-02-14T04:25:59.893Z,100385.00
2023-02-14T04:28:30.172Z,100379.09
2023-02-14T04:31:01.695Z,100389.09
2023-02-14T04:33:28.917Z,100395.59
2023-02-14T04:35:55.604Z,100393.69
2023-02-14T04:38:22.460Z,100392.00
2023-02-14T04:40:50.472Z,100388.84
2023-02-14T04:43:19.711Z,100387.84
2023-02-14T04:45:47.379Z,100374.66
2023-02-14T04:48:13.905Z,100371.88
2023-02-14T04:50:40.353Z,100377.75
2023-02-14T04:53:06.984Z,100373.22
2023-02-14T04:55:33.448Z,100368.06
2023-02-14T04:57:59.918Z,100366.00
2023-02-14T05:00:26.589Z,100365.06
2023-02-14T05:02:55.256Z,100372.03
2023-02-14T05:05:24.015Z,100365.81
2023-02-14T05:07:50.529Z,100373.38
2023-02-14T05:10:17.182Z,100361.38
2023-02-14T05:12:44.946Z,100365.63
2023-02-14T05:15:11.618Z,100365.28
2023-02-14T05:17:38.082Z,100377.28
2023-02-14T05:20:06.015Z,100366.84
2023-02-14T05:22:35.303Z,100367.22
2023-02-14T05:25:01.978Z,100368.97
2023-02-14T05:27:28.486Z,100365.25
2023-02-14T05:29:54.966Z,100372.81
2023-02-14T05:32:21.477Z,100369.44
2023-02-14T05:34:47.950Z,100367.09
2023-02-14T05:37:15.566Z,100367.66
2023-02-14T05:39:42.047Z,100363.03
2023-02-14T05:42:10.916Z,100360.19
2023-02-14T05:44:37.351Z,100360.31
2023-02-14T05:47:03.981Z,100360.19
2023-02-14T05:49:30.492Z,100368.13
2023-02-14T05:51:56.959Z,100366.00
2023-02-14T05:54:23.432Z,100360.41
2023-02-14T05:56:57.114Z,100369.47
2023-02-14T05:59:23.759Z,100366.28
2023-02-14T06:01:50.273Z,100369.28
2023-02-14T06:04:16.832Z,100377.47
2023-02-14T06:06:47.808Z,100374.97
2023-02-14T06:09:21.693Z,100377.97
2023-02-14T06:11:48.200Z,100379.41
2023-02-14T06:14:14.772Z,100388.81
2023-02-14T06:16:41.330Z,100387.75
2023-02-14T06:19:12.810Z,100384.03
2023-02-14T06:21:39.247Z,100382.75
2023-02-14T06:24:05.732Z,100380.47
2023-02-14T06:26:33.380Z,100381.81
2023-02-14T06:28:59.833Z,100380.31
2023-02-14T06:31:26.504Z,100375.97
2023-02-14T06:33:55.889Z,100379.22
2023-02-14T06:36:23.691Z,100367.88
2023-02-14T06:38:50.252Z,100373.03
2023-02-14T06:41:20.274Z,100383.13
2023-02-14T06:43:50.787Z,100377.81
2023-02-14T06:46:18.580Z,100374.25
2023-02-14T06:48:45.319Z,100380.38
2023-02-14T06:51:12.848Z,100376.03
2023-02-14T06:53:39.472Z,100377.63
2023-02-14T06:56:06.612Z,100372.38
2023-02-14T06:58:36.326Z,100373.38
2023-02-14T07:01:02.968Z,100372.47
2023-02-14T07:03:29.716Z,100370.91
2023-02-14T07:05:57.842Z,100376.22
2023-02-14T07:08:26.209Z,100378.88
2023-02-14T07:10:57.220Z,100376.66
2023-02-14T07:13:24.799Z,100371.66
2023-02-14T07:15:51.527Z,100376.22
2023-02-14T07:18:18.102Z,100374.44
2023-02-14T07:20:45.093Z,100378.06
2023-02-14T07:23:11.842Z,100372.47
2023-02-14T07:25:38.507Z,100374.09
2023-02-14T07:28:05.535Z,100378.94
2023-02-14T07:30:32.389Z,100375.94
2023-02-14T07:33:01.266Z,100372.09
2023-02-14T07:35:27.904Z,100384.09
2023-02-14T07:37:54.729Z,100382.84
2023-02-14T07:40:25.360Z,100384.88
2023-02-14T07:42:56.566Z,100382.03
2023-02-14T07:45:23.685Z,100376.34
2023-02-14T07:47:55.507Z,100363.88
2023-02-14T07:50:27.974Z,100369.34
2023-02-14T07:52:55.883Z,100368.25
2023-02-14T07:55:25.331Z,100366.09
2023-02-14T07:57:53.004Z,100369.09
2023-02-14T08:00:20.201Z,100353.53
2023-02-14T08:02:49.277Z,100357.56
2023-02-14T08:05:16.083Z,100352.97
2023-02-14T08:07:44.068Z,100354.59
2023-02-14T08:10:12.914Z,100348.91
2023-02-14T08:12:58.951Z,100351.66
2023-02-14T08:15:46.390Z,100347.00
2023-02-14T08:18:13.810Z,100347.06
2023-02-14T08:20:40.693Z,100338.03
2023-02-14T08:23:07.538Z,100331.34
2023-02-14T08:25:34.431Z,100338.91
2023-02-14T08:28:05.183Z,100346.97
2023-02-14T08:30:32.654Z,100346.44
2023-02-14T08:32:59.620Z,100356.53
2023-02-14T08:35:26.687Z,100340.78
2023-02-14T08:37:53.377Z,100335.84
2023-02-14T08:40:20.706Z,100338.00
2023-02-14T08:42:47.525Z,100331.72
2023-02-14T08:45:14.916Z,100338.34
2023-02-14T08:47:45.919Z,100345.41
2023-02-14T08:50:15.624Z,100337.69
2023-02-14T08:52:43.924Z,100341.31
2023-02-14T08:55:11.957Z,100329.41
2023-02-14T08:57:40.162Z,100330.97
2023-02-14T09:00:08.606Z,100331.72
2023-02-14T09:02:35.595Z,100341.25
2023-02-14T09:05:02.342Z,100337.47
2023-02-14T09:07:28.998Z,100336.75
2023-02-14T09:09:55.669Z,100334.44
2023-02-14T09:12:30.080Z,100337.88
2023-02-14T09:14:57.720Z,100334.25
2023-02-14T09:17:24.452Z,100334.81
2023-02-14T09:19:51.178Z,100335.94
2023-02-14T09:22:20.277Z,100338.16
2023-02-14T09:24:49.447Z,100325.94
2023-02-14T09:27:16.107Z,100324.19
2023-02-14T09:29:42.892Z,100325.28
2023-02-14T09:32:10.417Z,100318.69
2023-02-14T09:34:55.760Z,100312.91
2023-02-14T09:37:22.649Z,100305.34
2023-02-14T09:39:49.571Z,100307.84
2023-02-14T09:42:42.097Z,100307.81
2023-02-14T09:45:17.610Z,100316.88
2023-02-14T09:48:13.553Z,100315.28
2023-02-14T09:50:47.793Z,100314.13
2023-02-14T09:53:30.266Z,100305.19
2023-02-14T09:56:18.135Z,100299.38
2023-02-14T09:59:04.124Z,100296.44
2023-02-14T10:01:42.828Z,100291.81
2023-02-14T10:04:33.874Z,100301.94
2023-02-14T10:07:10.554Z,100295.78
2023-02-14T10:10:07.920Z,100293.94
2023-02-14T10:12:40.202Z,100291.56
2023-02-14T10:15:21.416Z,100282.63
2023-02-14T10:17:55.272Z,100284.06
2023-02-14T10:20:37.617Z,100283.88
2023-02-14T10:23:17.339Z,100281.88
2023-02-14T10:25:56.481Z,100273.44
2023-02-14T10:28:31.525Z,100281.72
2023-02-14T10:31:16.407Z,100266.44
2023-02-14T10:33:47.814Z,100265.00
2023-02-14T10:36:51.494Z,100262.69
2023-02-14T10:39:17.952Z,100268.59
2023-02-14T10:41:53.296Z,100267.44
2023-02-14T10:44:25.672Z,100275.09
2023-02-14T10:47:02.166Z,100271.41
2023-02-14T10:49:40.219Z,100272.72
2023-02-14T10:52:25.257Z,100267.78
2023-02-14T10:55:13.908Z,100269.91
2023-02-14T10:57:48.285Z,100265.09
2023-02-14T11:00:24.286Z,100262.75
2023-02-14T11:02:56.766Z,100253.56
2023-02-14T11:05:41.623Z,100250.50
2023-02-14T11:08:18.287Z,100249.50
2023-02-14T11:10:45.955Z,100253.13
2023-02-14T11:13:32.141Z,100257.50
2023-02-14T11:16:03.346Z,100256.19
2023-02-14T11:18:36.566Z,100247.66
2023-02-14T11:21:17.869Z,100247.28
2023-02-14T11:23:47.309Z,100248.47
2023-02-14T11:26:23.567Z,100257.59
2023-02-14T11:28:56.396Z,100244.34
2023-02-14T11:31:35.063Z,100244.63
2023-02-14T11:34:05.015Z,100249.69
2023-02-14T11:36:33.755Z,100240.81
2023-02-14T11:39:28.498Z,100238.19
2023-02-14T11:41:57.732Z,100236.50
2023-02-14T11:44:28.469Z,100231.09
2023-02-14T11:46:57.761Z,100235.25
2023-02-14T11:49:28.628Z,100231.13
2023-02-14T11:51:57.310Z,100227.41
2023-02-14T11:54:48.492Z,100224.75
2023-02-14T11:57:19.172Z,100225.22
2023-02-14T11:59:56.249Z,100225.41
2023-02-14T12:02:28.098Z,100220.16
2023-02-14T12:05:05.628Z,100220.03
2023-02-14T12:07:37.052Z,100214.81
2023-02-14T12:10:19.835Z,100211.31
2023-02-14T12:12:56.118Z,100210.56
2023-02-14T12:15:27.698Z,100202.69
2023-02-14T12:18:37.215Z,100199.06
2023-02-14T12:21:26.260Z,100198.06
2023-02-14T12:24:12.708Z,100187.78
2023-02-14T12:26:46.991Z,100192.06
2023-02-14T12:29:44.240Z,100185.25
2023-02-14T12:32:22.917Z,100183.47
2023-02-14T12:34:50.512Z,100182.25
2023-02-14T12:37:31.403Z,100181.19
2023-02-14T12:40:31.725Z,100178.66
2023-02-14T12:43:12.386Z,100173.50
2023-02-14T12:46:09.037Z,100177.94
2023-02-14T12:49:03.442Z,100170.88
2023-02-14T12:51:59.504Z,100169.22
2023-02-14T12:54:44.076Z,100166.59
2023-02-14T12:57:32.654Z,100160.66
2023-02-14T13:00:31.412Z,100151.97
2023-02-14T13:03:16.213Z,100147.50
2023-02-14T13:06:08.316Z,100154.31
2023-02-14T13:09:01.656Z,100162.13
2023-02-14T13:11:58.200Z,100163.97
2023-02-14T13:14:36.941Z,100154.91
2023-02-14T13:17:19.279Z,100148.72
2023-02-14T13:20:18.336Z,100143.59
2023-02-14T13:22:46.031Z,100145.50
2023-02-14T13:25:36.292Z,100136.47
2023-02-14T13:28:11.536Z,100142.00
2023-02-14T13:30:48.594Z,100131.06
2023-02-14T13:33:27.561Z,100134.56
2023-02-14T13:36:12.756Z,100135.66
2023-02-14T13:41:21.719Z,100130.03
2023-02-14T13:43:51.512Z,100128.84
2023-02-14T13:46:42.609Z,100129.75
2023-02-14T13:49:30.942Z,100124.91
2023-02-14T13:52:05.787Z,100118.81
2023-02-14T13:54:37.984Z,100120.31
2023-02-14T13:57:29.396Z,100124.34
2023-02-14T14:00:22.859Z,100118.13
2023-02-14T14:02:58.292Z,100116.19
2023-02-14T14:05:30.862Z,100117.16
2023-02-14T14:08:28.770Z,100107.91
2023-02-14T14:11:02.109Z,100114.22
2023-02-14T14:13:54.671Z,100114.78
2023-02-14T14:16:24.546Z,100109.66
2023-02-14T14:18:53.988Z,100102.56
2023-02-14T14:21:30.805Z,100094.72
2023-02-14T14:24:15.380Z,100098.16
2023-02-14T14:26:57.251Z,100100.78
2023-02-14T14:29:34.845Z,100095.31
2023-02-14T14:32:21.656Z,100090.88
2023-02-14T14:34:50.966Z,100089.09
2023-02-14T14:37:20.416Z,100086.28
2023-02-14T14:39:52.269Z,100078.47
2023-02-14T14:42:20.182Z,100079.16
2023-02-14T14:44:50.924Z,100083.44
2023-02-14T14:47:27.219Z,100073.69
2023-02-14T14:50:08.226Z,100079.53
2023-02-14T14:52:45.859Z,100071.69
2023-02-14T14:55:25.390Z,100072.44
2023-02-14T14:58:00.478Z,100068.97
2023-02-14T15:00:35.417Z,100065.25
2023-02-14T15:03:17.657Z,100061.00
2023-02-14T15:05:49.498Z,100065.28
2023-02-14T15:08:19.097Z,100061.69
2023-02-14T15:11:12.773Z,100063.22
2023-02-14T15:13:52.282Z,100053.63
2023-02-14T15:16:22.189Z,100060.44
2023-02-14T15:18:50.754Z,100057.59
2023-02-14T15:21:18.336Z,100064.56
2023-02-14T15:23:45.862Z,100059.25
2023-02-14T15:26:24.345Z,100048.59
2023-02-14T15:28:56.850Z,100054.66
2023-02-14T15:31:28.192Z,100052.78
2023-02-14T15:34:00.145Z,100049.16
2023-02-14T15:36:27.534Z,100045.63
2023-02-14T15:38:56.776Z,100043.72
2023-02-14T15:41:26.982Z,100043.75
2023-02-14T15:44:01.191Z,100051.34
2023-02-14T15:46:36.950Z,100046.16
2023-02-14T15:49:09.425Z,100048.53
2023-02-14T15:51:40.665Z,100043.94
2023-02-14T15:54:20.257Z,100049.78
2023-02-14T15:56:51.834Z,100053.00
2023-02-14T15:59:22.361Z,100044.22
2023-02-14T16:01:53.128Z,100045.69
2023-02-14T16:04:28.777Z,100045.69
2023-02-14T16:07:34.562Z,100051.72
2023-02-14T16:10:22.084Z,100054.31
2023-02-14T16:12:57.792Z,100055.72
2023-02-14T16:15:36.737Z,100052.22
2023-02-14T16:18:16.582Z,100053.59
2023-02-14T16:20:47.097Z,100048.22
2023-02-14T16:23:18.603Z,100052.19
2023-02-14T16:25:53.696Z,100044.97
2023-02-14T16:28:20.830Z,100050.84
2023-02-14T16:30:54.853Z,100050.78
2023-02-14T16:33:25.600Z,100056.63
2023-02-14T16:35:53.626Z,100054.59
2023-02-14T16:38:22.059Z,100062.25
2023-02-14T16:40:52.468Z,100061.72
2023-02-14T16:43:20.717Z,100064.84
2023-02-14T16:45:53.813Z,100065.38
2023-02-14T16:48:20.501Z,100060.78
2023-02-14T16:50:47.704Z,100065.50
2023-02-14T16:53:34.649Z,100056.75
2023-02-14T16:56:01.237Z,100060.75
2023-02-14T16:58:33.613Z,100059.53
2023-02-14T17:01:00.536Z,100057.28
2023-02-14T17:03:27.347Z,100053.50
2023-02-14T17:05:59.287Z,100052.25
2023-02-14T17:08:26.320Z,100044.97
2023-02-14T17:10:53.756Z,100041.50
2023-02-14T17:13:24.371Z,100039.31
2023-02-14T17:15:51.221Z,100043.91
2023-02-14T17:18:21.205Z,100039.34
2023-02-14T17:20:48.642Z,100039.91
2023-02-14T17:23:15.686Z,100042.97
2023-02-14T17:25:42.401Z,100035.97
2023-02-14T17:28:10.997Z,100040.28
2023-02-14T17:33:18.279Z,100051.88
2023-02-14T17:35:45.003Z,100058.53
2023-02-14T17:38:12.092Z,100055.06
2023-02-14T17:40:44.235Z,100051.66
2023-02-14T17:43:10.917Z,100055.56
2023-02-14T17:45:37.828Z,100062.13
2023-02-14T17:48:04.618Z,100056.50
2023-02-14T17:50:32.810Z,100056.06
2023-02-14T17:52:59.465Z,100060.00
2023-02-14T17:55:29.257Z,100054.50
2023-02-14T17:57:55.835Z,100054.88
2023-02-14T18:00:24.089Z,100052.88
2023-02-14T18:02:50.762Z,100050.38
2023-02-14T18:05:17.384Z,100053.75
2023-02-14T18:07:44.146Z,100058.06
2023-02-14T18:10:11.724Z,100049.41
2023-02-14T18:12:38.279Z,100042.41
2023-02-14T18:15:05.686Z,100037.88
2023-02-14T18:17:32.376Z,100038.53
2023-02-14T18:19:59.057Z,100035.50
2023-02-14T18:22:27.885Z,100027.69
2023-02-14T18:24:58.796Z,100019.97
2023-02-14T18:27:26.502Z,100033.63
2023-02-14T18:29:53.367Z,100031.91
2023-02-14T18:32:20.184Z,100019.59
2023-02-14T18:34:49.069Z,100017.47
2023-02-14T18:37:15.731Z,100020.75
2023-02-14T18:39:42.412Z,100014.84
2023-02-14T18:42:09.013Z,100009.00
2023-02-14T18:44:36.667Z,100013.25
2023-02-14T18:47:03.325Z,100007.84
2023-02-14T18:49:29.979Z,100011.06
2023-02-14T18:51:58.542Z,100000.56
2023-02-14T18:54:25.123Z,100000.31
2023-02-14T18:56:51.751Z,99996.91
2023-02-14T18:59:18.567Z,99996.00
2023-02-14T19:01:46.034Z,99995.03
2023-02-14T19:04:13.552Z,99995.84
2023-02-14T19:06:42.018Z,100001.72
2023-02-14T19:09:14.265Z,99999.63
2023-02-14T19:11:40.838Z,99993.28
2023-02-14T19:14:10.594Z,99994.03
2023-02-14T19:16:42.183Z,99993.00
2023-02-14T19:19:09.234Z,99993.78
2023-02-14T19:21:36.883Z,100003.75
2023-02-14T19:24:07.502Z,99992.31
2023-02-14T19:26:40.169Z,99991.59
2023-02-14T19:29:15.181Z,99983.94
2023-02-14T19:31:45.866Z,99990.00
2023-02-14T19:34:18.496Z,99993.28
2023-02-14T19:36:45.813Z,99991.28
2023-02-14T19:39:20.850Z,99987.03
2023-02-14T19:41:47.691Z,99987.88
2023-02-14T19:44:17.093Z,99988.69
2023-02-14T19:46:46.429Z,99983.50
2023-02-14T19:49:19.812Z,99984.06
2023-02-14T19:51:48.123Z,99981.28
2023-02-14T19:54:15.863Z,99986.00
2023-02-14T19:56:44.839Z,99983.31
2023-02-14T19:59:16.464Z,99983.66
2023-02-14T20:01:47.696Z,99975.91
2023-02-14T20:04:23.037Z,99968.91
2023-02-14T20:06:50.092Z,99963.75
2023-02-14T20:09:17.154Z,99967.22
2023-02-14T20:11:50.045Z,99967.28
2023-02-14T20:14:22.730Z,99963.25
2023-02-14T20:16:55.020Z,99957.69
2023-02-14T20:19:27.026Z,99957.59
2023-02-14T20:21:54.004Z,99955.81
2023-02-14T20:24:26.451Z,99960.06
2023-02-14T20:26:54.906Z,99953.69
2023-02-14T20:29:23.127Z,99952.47
2023-02-14T20:31:52.309Z,99955.72
2023-02-14T20:34:19.334Z,99948.75
2023-02-14T20:36:49.736Z,99953.03
2023-02-14T20:39:16.332Z,99945.78
2023-02-14T20:41:46.396Z,99942.94
2023-02-14T20:44:15.556Z,99942.53
2023-02-14T20:46:42.097Z,99934.56
2023-02-14T20:49:11.221Z,99939.56
2023-02-14T20:51:38.790Z,99947.19
2023-02-14T20:54:05.432Z,99943.66
2023-02-14T20:56:32.650Z,99938.97
2023-02-14T20:59:02.241Z,99931.16
2023-02-14T21:01:29.509Z,99935.25
2023-02-14T21:03:56.294Z,99932.38
2023-02-14T21:06:29.281Z,99937.44
2023-02-14T21:08:56.117Z,99937.50
2023-02-14T21:11:26.357Z,99934.16
2023-02-14T21:14:01.361Z,99925.25
2023-02-14T21:16:29.454Z,99926.53
2023-02-14T21:19:01.592Z,99928.38
2023-02-14T21:21:32.567Z,99926.06
2023-02-14T21:24:01.125Z,99921.69
2023-02-14T21:26:28.941Z,99921.69
2023-02-14T21:28:55.624Z,99915.59
2023-02-14T21:31:23.515Z,99909.59
2023-02-14T21:33:54.450Z,99916.53
2023-02-14T21:36:23.013Z,99922.19
2023-02-14T21:38:50.064Z,99918.38
2023-02-14T21:41:19.257Z,99921.50
2023-02-14T21:43:49.162Z,99921.31
2023-02-14T21:46:18.284Z,99918.59
2023-02-14T21:49:03.544Z,99921.25
2023-02-14T21:51:30.738Z,99908.25
2023-02-14T21:53:59.953Z,99912.41
2023-02-14T21:56:27.301Z,99902.97
2023-02-14T21:58:55.561Z,99909.97
2023-02-14T22:01:31.552Z,99908.06
2023-02-14T22:03:59.105Z,99896.66
2023-02-14T22:06:26.990Z,99900.34
2023-02-14T22:08:54.980Z,99907.59
2023-02-14T22:11:25.228Z,99907.66
2023-02-14T22:13:51.867Z,99911.06
2023-02-14T22:16:20.536Z,99912.69
2023-02-14T22:18:48.025Z,99910.78
2023-02-14T22:21:24.287Z,99907.13
2023-02-14T22:23:51.240Z,99913.53
2023-02-14T22:26:21.615Z,99912.16
2023-02-14T22:28:49.291Z,99916.50
2023-02-14T22:31:26.165Z,99913.84
2023-02-14T22:33:53.567Z,99917.78
2023-02-14T22:36:20.565Z,99905.38
2023-02-14T22:38:47.303Z,99906.31
2023-02-14T22:41:24.272Z,99902.34
2023-02-14T22:43:52.350Z,99904.78
2023-02-14T22:46:22.015Z,99903.00
2023-02-14T22:48:49.843Z,99897.94
2023-02-14T22:51:32.080Z,99886.50
2023-02-14T22:54:09.088Z,99891.66
2023-02-14T22:56:39.035Z,99882.06
2023-02-14T22:59:17.478Z,99876.56
2023-02-14T23:01:44.921Z,99882.69
2023-02-14T23:04:14.426Z,99878.84
2023-02-14T23:06:41.142Z,99872.69
2023-02-14T23:09:09.058Z,99876.72
2023-02-14T23:11:37.295Z,99876.31
2023-02-14T23:14:22.998Z,99866.41
2023-02-14T23:17:08.560Z,99872.34
2023-02-14T23:19:54.956Z,99873.94
2023-02-14T23:22:26.088Z,99864.59
2023-02-14T23:24:55.278Z,99868.06
2023-02-14T23:27:25.014Z,99869.88
2023-02-14T23:29:51.873Z,99852.28
2023-02-14T23:32:20.736Z,99848.53
2023-02-14T23:34:47.572Z,99854.66
2023-02-14T23:37:14.936Z,99847.28
2023-02-14T23:39:41.990Z,99842.47
2023-02-14T23:42:16.438Z,99843.44
2023-02-14T23:44:43.734Z,99851.44
2023-02-14T23:47:13.437Z,99842.75
2023-02-14T23:49:41.171Z,99838.28
2023-02-14T23:52:10.932Z,99836.56
2023-02-14T23:54:38.104Z,99828.66
2023-02-14T23:57:07.490Z,99833.66
2023-02-14T23:59:34.148Z,99835.88
